createdAt,value
2022-08-11T04:00:37.108Z,1008.82
2022-08-11T04:01:37.102Z,1008.81
2022-08-11T04:02:37.305Z,1008.79
2022-08-11T04:03:37.053Z,1008.77
2022-08-11T04:04:37.029Z,1008.77
2022-08-11T04:05:37.018Z,1008.80
2022-08-11T04:06:37.010Z,1008.80
2022-08-11T04:07:36.995Z,1008.80
2022-08-11T04:08:36.994Z,1008.77
2022-08-11T04:09:36.972Z,1008.76
2022-08-11T04:10:36.994Z,1008.78
2022-08-11T04:11:41.974Z,1008.73
2022-08-11T04:12:37.198Z,1008.78
2022-08-11T04:13:36.946Z,1008.75
2022-08-11T04:14:36.915Z,1008.81
2022-08-11T04:15:36.906Z,1008.77
2022-08-11T04:16:36.895Z,1008.81
2022-08-11T04:17:36.883Z,1008.72
2022-08-11T04:18:36.887Z,1008.78
2022-08-11T04:19:36.865Z,1008.82
2022-08-11T04:20:36.850Z,1008.76
2022-08-11T04:21:36.842Z,1008.78
2022-08-11T04:22:41.849Z,1008.79
2022-08-11T04:24:34.929Z,1008.75
2022-08-11T04:24:39.814Z,1008.74
2022-08-11T04:25:57.616Z,1008.71
2022-08-11T04:26:37.785Z,1008.73
2022-08-11T04:27:39.073Z,1008.73
2022-08-11T04:28:43.036Z,1008.75
2022-08-11T04:30:03.547Z,1008.79
2022-08-11T04:30:39.340Z,1008.76
2022-08-11T04:31:51.413Z,1008.70
2022-08-11T04:32:37.868Z,1008.73
2022-08-11T04:33:41.746Z,1008.73
2022-08-11T04:34:36.698Z,1008.77
2022-08-11T04:35:36.684Z,1008.74
2022-08-11T04:36:36.675Z,1008.76
2022-08-11T04:37:36.663Z,1008.75
2022-08-11T04:38:36.663Z,1008.74
2022-08-11T04:39:36.661Z,1008.76
2022-08-11T04:40:36.635Z,1008.77
2022-08-11T04:41:36.621Z,1008.75
2022-08-11T04:42:36.608Z,1008.77
2022-08-11T04:43:36.617Z,1008.77
2022-08-11T04:44:42.604Z,1008.81
2022-08-11T04:45:36.575Z,1008.81
2022-08-11T04:46:36.566Z,1008.85
2022-08-11T04:48:01.858Z,1008.81
2022-08-11T04:48:37.559Z,1008.81
2022-08-11T04:49:36.563Z,1008.85
2022-08-11T04:50:36.515Z,1008.86
2022-08-11T04:51:36.509Z,1008.86
2022-08-11T04:52:38.305Z,1008.83
2022-08-11T04:53:36.486Z,1008.84
2022-08-11T04:54:36.480Z,1008.87
2022-08-11T04:55:41.484Z,1008.85
2022-08-11T04:56:36.456Z,1008.85
2022-08-11T04:57:36.439Z,1008.84
2022-08-11T04:58:36.429Z,1008.81
2022-08-11T04:59:36.434Z,1008.87
2022-08-11T05:00:36.407Z,1008.88
2022-08-11T05:01:37.602Z,1008.86
2022-08-11T05:02:36.541Z,1008.88
2022-08-11T05:03:36.394Z,1008.90
2022-08-11T05:04:36.377Z,1008.89
2022-08-11T05:05:36.353Z,1008.90
2022-08-11T05:06:41.361Z,1008.89
2022-08-11T05:07:36.328Z,1008.95
2022-08-11T05:08:36.316Z,1008.92
2022-08-11T05:09:36.317Z,1008.94
2022-08-11T05:10:43.080Z,1008.97
2022-08-11T05:11:37.285Z,1008.96
2022-08-11T05:12:36.424Z,1008.95
2022-08-11T05:13:36.265Z,1008.99
2022-08-11T05:14:36.266Z,1009.01
2022-08-11T05:15:42.982Z,1008.98
2022-08-11T05:16:37.226Z,1009.00
2022-08-11T05:17:41.252Z,1008.99
2022-08-11T05:18:36.205Z,1008.91
2022-08-11T05:19:36.216Z,1009.02
2022-08-11T05:20:36.184Z,1008.99
2022-08-11T05:21:44.676Z,1008.97
2022-08-11T05:22:37.440Z,1008.97
2022-08-11T05:23:36.154Z,1009.06
2022-08-11T05:24:36.153Z,1009.01
2022-08-11T05:26:44.509Z,1008.96
2022-08-11T05:26:46.220Z,1008.97
2022-08-11T05:27:37.106Z,1008.97
2022-08-11T05:28:41.116Z,1008.96
2022-08-11T05:29:36.094Z,1008.94
2022-08-11T05:30:36.078Z,1009.00
2022-08-11T05:31:36.063Z,1009.02
2022-08-11T05:32:36.066Z,1009.05
2022-08-11T05:33:36.040Z,1009.00
2022-08-11T05:34:36.047Z,1009.04
2022-08-11T05:36:02.267Z,1008.99
2022-08-11T05:36:37.009Z,1009.06
2022-08-11T05:37:35.997Z,1009.01
2022-08-11T05:38:36.002Z,1009.05
2022-08-11T05:39:41.089Z,1009.01
2022-08-11T05:40:35.963Z,1009.05
2022-08-11T05:41:35.949Z,1009.04
2022-08-11T05:42:35.940Z,1009.02
2022-08-11T05:43:35.942Z,1009.07
2022-08-11T05:44:35.924Z,1009.04
2022-08-11T05:46:02.832Z,1009.06
2022-08-11T05:46:36.896Z,1009.04
2022-08-11T05:47:35.883Z,1009.10
2022-08-11T05:48:35.886Z,1009.05
2022-08-11T05:49:35.877Z,1009.08
2022-08-11T05:50:40.883Z,1009.12
2022-08-11T05:51:35.839Z,1009.09
2022-08-11T05:52:41.614Z,1009.14
2022-08-11T05:53:46.106Z,1009.06
2022-08-11T05:54:36.809Z,1009.06
2022-08-11T05:55:35.794Z,1009.03
2022-08-11T05:56:36.783Z,1009.07
2022-08-11T05:57:44.048Z,1009.06
2022-08-11T05:58:41.299Z,1009.14
2022-08-11T05:59:36.770Z,1009.04
2022-08-11T06:00:35.740Z,1009.13
2022-08-11T06:01:40.807Z,1009.17
2022-08-11T06:02:35.802Z,1009.13
2022-08-11T06:03:35.705Z,1009.21
2022-08-11T06:04:35.709Z,1009.17
2022-08-11T06:05:38.362Z,1009.15
2022-08-11T06:06:36.678Z,1009.14
2022-08-11T06:07:49.025Z,1009.18
2022-08-11T06:08:36.652Z,1009.13
2022-08-11T06:09:35.652Z,1009.20
2022-08-11T06:10:35.631Z,1009.13
2022-08-11T06:11:42.985Z,1009.13
2022-08-11T06:12:41.931Z,1009.21
2022-08-11T06:13:35.605Z,1009.20
2022-08-11T06:14:35.586Z,1009.22
2022-08-11T06:15:35.572Z,1009.16
2022-08-11T06:16:35.564Z,1009.18
2022-08-11T06:17:38.638Z,1009.11
2022-08-11T06:18:35.667Z,1009.12
2022-08-11T06:19:35.530Z,1009.17
2022-08-11T06:20:35.519Z,1009.12
2022-08-11T06:21:35.521Z,1009.14
2022-08-11T06:22:35.505Z,1009.15
2022-08-11T06:23:40.538Z,1009.13
2022-08-11T06:24:35.488Z,1009.17
2022-08-11T06:25:35.470Z,1009.18
2022-08-11T06:26:49.591Z,1009.17
2022-08-11T06:27:36.446Z,1009.16
2022-08-11T06:28:35.461Z,1009.15
2022-08-11T06:29:37.855Z,1009.21
2022-08-11T06:30:36.421Z,1009.18
2022-08-11T06:31:35.399Z,1009.24
2022-08-11T06:32:35.387Z,1009.16
2022-08-11T06:33:35.390Z,1009.20
2022-08-11T06:34:40.408Z,1009.26
2022-08-11T06:35:35.355Z,1009.29
2022-08-11T06:36:35.345Z,1009.25
2022-08-11T06:37:36.719Z,1009.23
2022-08-11T06:38:35.332Z,1009.15
2022-08-11T06:39:35.354Z,1009.17
2022-08-11T06:40:35.300Z,1009.12
2022-08-11T06:41:35.298Z,1009.16
2022-08-11T06:42:35.286Z,1009.18
2022-08-11T06:43:35.277Z,1009.18
2022-08-11T06:44:35.257Z,1009.14
2022-08-11T06:45:40.263Z,1009.14
2022-08-11T06:46:35.296Z,1009.17
2022-08-11T06:47:35.221Z,1009.17
2022-08-11T06:48:35.225Z,1009.20
2022-08-11T06:49:35.199Z,1009.18
2022-08-11T06:50:35.192Z,1009.16
2022-08-11T06:51:35.176Z,1009.14
2022-08-11T06:52:36.372Z,1009.15
2022-08-11T06:53:35.165Z,1009.10
2022-08-11T06:54:35.153Z,1009.16
2022-08-11T06:55:57.506Z,1009.18
2022-08-11T06:56:41.146Z,1009.16
2022-08-11T06:57:35.133Z,1009.12
2022-08-11T06:58:35.115Z,1009.14
2022-08-11T06:59:35.090Z,1009.15
2022-08-11T07:00:35.079Z,1009.17
2022-08-11T07:01:35.133Z,1009.14
2022-08-11T07:02:35.359Z,1009.10
2022-08-11T07:03:35.057Z,1009.22
2022-08-11T07:04:35.043Z,1009.22
2022-08-11T07:05:35.028Z,1009.22
2022-08-11T07:06:41.525Z,1009.22
2022-08-11T07:07:41.025Z,1009.22
2022-08-11T07:08:35.947Z,1009.17
2022-08-11T07:09:34.983Z,1009.17
2022-08-11T07:10:34.974Z,1009.23
2022-08-11T07:11:34.958Z,1009.19
2022-08-11T07:12:34.950Z,1009.21
2022-08-11T07:13:44.165Z,1009.17
2022-08-11T07:14:38.438Z,1009.20
2022-08-11T07:16:13.327Z,1009.15
2022-08-11T07:16:35.912Z,1009.14
2022-08-11T07:17:34.894Z,1009.15
2022-08-11T07:18:39.919Z,1009.10
2022-08-11T07:19:34.879Z,1009.15
2022-08-11T07:20:34.859Z,1009.10
2022-08-11T07:22:00.281Z,1009.09
2022-08-11T07:22:35.853Z,1009.10
2022-08-11T07:23:34.848Z,1009.12
2022-08-11T07:24:59.317Z,1009.16
2022-08-11T07:25:35.811Z,1009.07
2022-08-11T07:26:34.797Z,1009.06
2022-08-11T07:27:37.328Z,1009.08
2022-08-11T07:28:34.773Z,1009.16
2022-08-11T07:29:39.794Z,1009.05
2022-08-11T07:30:34.749Z,1009.09
2022-08-11T07:31:34.753Z,1009.10
2022-08-11T07:32:34.742Z,1008.97
2022-08-11T07:34:07.645Z,1009.03
2022-08-11T07:34:35.727Z,1009.01
2022-08-11T07:35:34.704Z,1009.07
2022-08-11T07:36:34.708Z,1008.99
2022-08-11T07:37:34.685Z,1009.02
2022-08-11T07:38:34.674Z,1009.02
2022-08-11T07:39:34.752Z,1009.04
2022-08-11T07:40:39.665Z,1009.06
2022-08-11T07:41:34.630Z,1009.08
2022-08-11T07:42:34.618Z,1009.11
2022-08-11T07:43:34.618Z,1008.99
2022-08-11T07:44:35.477Z,1009.09
2022-08-11T07:45:34.584Z,1009.03
2022-08-11T07:46:34.578Z,1009.06
2022-08-11T07:47:34.572Z,1009.03
2022-08-11T07:48:34.569Z,1009.02
2022-08-11T07:49:34.556Z,1008.99
2022-08-11T07:50:34.553Z,1009.04
2022-08-11T07:51:39.588Z,1009.01
2022-08-11T07:52:34.571Z,1009.02
2022-08-11T07:53:34.495Z,1009.02
2022-08-11T07:54:35.502Z,1009.02
2022-08-11T07:55:51.502Z,1008.97
2022-08-11T07:56:47.993Z,1008.99
2022-08-11T07:58:14.529Z,1009.01
2022-08-11T07:58:45.198Z,1009.04
2022-08-11T08:00:04.166Z,1009.07
2022-08-11T08:00:35.443Z,1009.06
2022-08-11T08:01:34.459Z,1009.07
2022-08-11T08:02:39.543Z,1009.08
2022-08-11T08:03:34.399Z,1009.14
2022-08-11T08:04:34.398Z,1009.08
2022-08-11T08:05:34.365Z,1009.09
2022-08-11T08:06:36.030Z,1009.07
2022-08-11T08:07:34.368Z,1009.00
2022-08-11T08:08:34.392Z,1009.10
2022-08-11T08:09:34.343Z,1009.07
2022-08-11T08:10:34.314Z,1009.10
2022-08-11T08:11:34.317Z,1009.05
2022-08-11T08:12:34.295Z,1009.14
2022-08-11T08:13:39.302Z,1009.14
2022-08-11T08:14:34.290Z,1009.13
2022-08-11T08:15:34.255Z,1009.10
2022-08-11T08:16:34.245Z,1009.10
2022-08-11T08:17:34.233Z,1009.08
2022-08-11T08:18:34.223Z,1009.12
2022-08-11T08:19:34.214Z,1009.10
2022-08-11T08:20:34.234Z,1009.11
2022-08-11T08:21:34.190Z,1009.12
2022-08-11T08:22:38.244Z,1009.08
2022-08-11T08:23:35.168Z,1009.07
2022-08-11T08:24:39.196Z,1009.04
2022-08-11T08:25:34.149Z,1009.08
2022-08-11T08:26:34.143Z,1009.13
2022-08-11T08:27:34.129Z,1009.12
2022-08-11T08:28:34.126Z,1009.15
2022-08-11T08:29:34.107Z,1009.10
2022-08-11T08:30:34.109Z,1009.07
2022-08-11T08:31:34.090Z,1009.07
2022-08-11T08:32:34.074Z,1009.11
2022-08-11T08:33:34.061Z,1009.11
2022-08-11T08:34:34.054Z,1009.12
2022-08-11T08:35:55.744Z,1009.09
2022-08-11T08:36:35.032Z,1009.03
2022-08-11T08:37:46.026Z,1009.09
2022-08-11T08:38:35.017Z,1009.04
2022-08-11T08:39:34.056Z,1009.04
2022-08-11T08:40:34.001Z,1009.10
2022-08-11T08:41:33.982Z,1009.09
2022-08-11T08:42:34.010Z,1008.97
2022-08-11T08:43:47.506Z,1008.95
2022-08-11T08:44:39.259Z,1008.96
2022-08-11T08:45:34.943Z,1008.93
2022-08-11T08:46:38.947Z,1008.98
2022-08-11T08:47:41.100Z,1009.02
2022-08-11T08:48:34.902Z,1008.97
2022-08-11T08:49:33.892Z,1008.97
2022-08-11T08:50:33.895Z,1008.96
2022-08-11T08:51:54.788Z,1008.95
2022-08-11T08:52:39.156Z,1009.03
2022-08-11T08:53:34.844Z,1009.01
2022-08-11T08:54:33.838Z,1009.01
2022-08-11T08:55:33.852Z,1008.94
2022-08-11T08:56:33.815Z,1009.00
2022-08-11T08:57:39.811Z,1008.96
2022-08-11T08:58:33.797Z,1008.94
2022-08-11T08:59:47.457Z,1009.01
2022-08-11T09:00:34.816Z,1009.02
2022-08-11T09:01:33.832Z,1009.06
2022-08-11T09:02:35.104Z,1009.01
2022-08-11T09:04:02.930Z,1009.01
2022-08-11T09:04:34.726Z,1008.96
2022-08-11T09:05:33.726Z,1009.00
2022-08-11T09:06:33.709Z,1009.06
2022-08-11T09:07:39.950Z,1009.04
2022-08-11T09:08:39.714Z,1009.05
2022-08-11T09:09:33.674Z,1009.07
2022-08-11T09:10:33.670Z,1009.12
2022-08-11T09:11:33.651Z,1009.10
2022-08-11T09:12:36.077Z,1009.11
2022-08-11T09:13:34.625Z,1009.14
2022-08-11T09:14:33.616Z,1009.19
2022-08-11T09:15:33.614Z,1009.15
2022-08-11T09:16:33.595Z,1009.07
2022-08-11T09:17:33.612Z,1009.11
2022-08-11T09:18:33.921Z,1009.15
2022-08-11T09:19:38.611Z,1009.16
2022-08-11T09:20:33.561Z,1009.14
2022-08-11T09:21:48.319Z,1009.18
2022-08-11T09:22:34.532Z,1009.06
2022-08-11T09:24:34.508Z,1009.11
2022-08-11T09:25:33.509Z,1009.01
2022-08-11T09:26:33.486Z,1009.07
2022-08-11T09:27:33.562Z,1008.95
2022-08-11T09:28:33.531Z,1009.05
2022-08-11T09:29:33.454Z,1009.08
2022-08-11T09:30:38.479Z,1009.10
2022-08-11T09:31:37.197Z,1009.04
2022-08-11T09:32:34.418Z,1009.06
2022-08-11T09:33:33.406Z,1009.10
2022-08-11T09:34:33.398Z,1009.09
2022-08-11T09:35:33.397Z,1009.16
2022-08-11T09:36:33.377Z,1009.10
2022-08-11T09:37:55.633Z,1009.08
2022-08-11T09:38:34.354Z,1009.00
2022-08-11T09:39:33.404Z,1009.08
2022-08-11T09:40:33.345Z,1009.13
2022-08-11T09:41:55.620Z,1009.13
2022-08-11T09:42:34.312Z,1009.10
2022-08-11T09:43:33.304Z,1009.23
2022-08-11T09:44:33.289Z,1009.03
2022-08-11T09:45:40.127Z,1008.97
2022-08-11T09:46:34.272Z,1009.10
2022-08-11T09:47:33.266Z,1009.00
2022-08-11T09:48:33.243Z,1008.95
2022-08-11T09:49:33.239Z,1009.02
2022-08-11T09:50:33.310Z,1009.00
2022-08-11T09:51:33.224Z,1009.00
2022-08-11T09:52:38.233Z,1008.98
2022-08-11T09:53:36.730Z,1008.95
2022-08-11T09:54:34.322Z,1009.01
2022-08-11T09:55:33.188Z,1008.98
2022-08-11T09:56:33.160Z,1009.01
2022-08-11T09:57:33.199Z,1008.97
2022-08-11T09:58:42.549Z,1008.98
2022-08-11T09:59:34.144Z,1008.85
2022-08-11T10:00:33.130Z,1008.85
2022-08-11T10:01:33.223Z,1008.89
2022-08-11T10:02:33.095Z,1008.92
2022-08-11T10:03:40.275Z,1008.88
2022-08-11T10:04:33.072Z,1008.81
2022-08-11T10:05:33.076Z,1008.80
2022-08-11T10:06:34.405Z,1008.81
2022-08-11T10:07:33.042Z,1008.88
2022-08-11T10:08:33.028Z,1008.91
2022-08-11T10:09:33.019Z,1008.90
2022-08-11T10:10:33.021Z,1008.83
2022-08-11T10:11:33.002Z,1008.77
2022-08-11T10:12:32.989Z,1008.75
2022-08-11T10:14:31.429Z,1008.73
2022-08-11T10:14:43.974Z,1008.75
2022-08-11T10:15:34.017Z,1008.77
2022-08-11T10:16:32.965Z,1008.74
2022-08-11T10:17:33.051Z,1008.74
2022-08-11T10:18:32.921Z,1008.73
2022-08-11T10:19:32.913Z,1008.71
2022-08-11T10:20:32.900Z,1008.73
2022-08-11T10:21:32.904Z,1008.64
2022-08-11T10:22:33.150Z,1008.73
2022-08-11T10:23:32.880Z,1008.69
2022-08-11T10:24:32.858Z,1008.75
2022-08-11T10:25:32.846Z,1008.85
2022-08-11T10:26:32.851Z,1008.75
2022-08-11T10:28:16.876Z,1008.89
2022-08-11T10:28:50.005Z,1008.91
2022-08-11T10:29:37.578Z,1008.76
2022-08-11T10:30:33.792Z,1008.68
2022-08-11T10:31:45.222Z,1008.68
2022-08-11T10:32:33.768Z,1008.65
2022-08-11T10:33:37.670Z,1008.62
2022-08-11T10:34:32.748Z,1008.59
2022-08-11T10:35:32.740Z,1008.67
2022-08-11T10:36:32.741Z,1008.74
2022-08-11T10:38:08.306Z,1008.72
2022-08-11T10:38:38.732Z,1008.73
2022-08-11T10:39:32.764Z,1008.61
2022-08-11T10:40:32.723Z,1008.52
2022-08-11T10:41:32.692Z,1008.59
2022-08-11T10:42:55.214Z,1008.64
2022-08-11T10:44:02.192Z,1008.59
2022-08-11T10:44:33.641Z,1008.60
2022-08-11T10:45:32.631Z,1008.62
2022-08-11T10:46:32.634Z,1008.53
2022-08-11T10:47:32.618Z,1008.46
2022-08-11T10:48:32.602Z,1008.49
2022-08-11T10:49:32.593Z,1008.73
2022-08-11T10:50:32.579Z,1008.60
2022-08-11T10:51:50.714Z,1008.61
2022-08-11T10:52:33.615Z,1008.57
2022-08-11T10:53:32.572Z,1008.54
2022-08-11T10:54:32.534Z,1008.53
2022-08-11T10:55:32.532Z,1008.56
2022-08-11T10:56:34.014Z,1008.43
2022-08-11T10:57:32.649Z,1008.40
2022-08-11T10:58:33.315Z,1008.36
2022-08-11T10:59:32.483Z,1008.39
2022-08-11T11:00:32.471Z,1008.36
2022-08-11T11:01:32.539Z,1008.25
2022-08-11T11:02:32.450Z,1008.27
2022-08-11T11:03:32.544Z,1008.38
2022-08-11T11:04:37.463Z,1008.30
2022-08-11T11:05:32.443Z,1008.29
2022-08-11T11:06:32.448Z,1008.42
2022-08-11T11:07:32.402Z,1008.25
2022-08-11T11:08:32.408Z,1008.49
2022-08-11T11:09:32.692Z,1008.29
2022-08-11T11:10:32.370Z,1008.39
2022-08-11T11:11:32.375Z,1008.31
2022-08-11T11:12:32.347Z,1008.44
2022-08-11T11:13:32.333Z,1008.22
2022-08-11T11:14:32.325Z,1008.30
2022-08-11T11:15:32.309Z,1008.20
2022-08-11T11:16:32.316Z,1008.24
2022-08-11T11:17:37.310Z,1008.45
2022-08-11T11:18:32.298Z,1008.25
2022-08-11T11:19:32.294Z,1008.14
2022-08-11T11:20:35.829Z,1008.16
2022-08-11T11:21:33.263Z,1008.13
2022-08-11T11:22:32.233Z,1008.14
2022-08-11T11:23:32.226Z,1008.08
2022-08-11T11:24:32.216Z,1008.05
2022-08-11T11:25:32.210Z,1008.08
2022-08-11T11:26:32.190Z,1008.16
2022-08-11T11:27:32.191Z,1008.11
2022-08-11T11:28:32.170Z,1008.05
2022-08-11T11:29:32.164Z,1008.41
2022-08-11T11:30:37.170Z,1008.31
2022-08-11T11:31:32.162Z,1008.17
2022-08-11T11:32:32.295Z,1008.07
2022-08-11T11:33:32.125Z,1008.01
2022-08-11T11:34:32.105Z,1008.09
2022-08-11T11:35:32.117Z,1008.14
2022-08-11T11:36:32.084Z,1008.16
2022-08-11T11:37:32.088Z,1008.04
2022-08-11T11:38:32.066Z,1007.97
2022-08-11T11:39:32.099Z,1007.97
2022-08-11T11:40:32.353Z,1008.02
2022-08-11T11:41:32.035Z,1007.88
2022-08-11T11:42:32.047Z,1007.92
2022-08-11T11:43:37.042Z,1007.82
2022-08-11T11:44:32.023Z,1007.69
2022-08-11T11:45:32.012Z,1007.84
2022-08-11T11:46:31.981Z,1007.67
2022-08-11T11:47:32.977Z,1007.59
2022-08-11T11:48:31.967Z,1007.72
2022-08-11T11:49:31.951Z,1007.74
2022-08-11T11:50:33.141Z,1007.73
2022-08-11T11:51:31.924Z,1007.78
2022-08-11T11:52:31.922Z,1007.82
2022-08-11T11:53:31.905Z,1007.77
2022-08-11T11:54:31.907Z,1007.77
2022-08-11T11:55:31.912Z,1007.77
2022-08-11T11:56:36.892Z,1007.84
2022-08-11T11:57:31.894Z,1008.04
2022-08-11T11:58:31.875Z,1007.92
2022-08-11T11:59:31.839Z,1008.04
2022-08-11T12:00:33.418Z,1007.99
2022-08-11T12:01:31.818Z,1008.02
2022-08-11T12:02:32.228Z,1007.94
2022-08-11T12:03:31.846Z,1007.96
2022-08-11T12:04:31.785Z,1008.04
2022-08-11T12:05:31.776Z,1007.95
2022-08-11T12:06:32.168Z,1007.97
2022-08-11T12:07:31.793Z,1008.03
2022-08-11T12:08:31.745Z,1008.05
2022-08-11T12:09:36.758Z,1007.98
2022-08-11T12:10:31.833Z,1008.04
2022-08-11T12:11:31.743Z,1008.02
2022-08-11T12:12:31.721Z,1007.91
2022-08-11T12:13:31.693Z,1007.92
2022-08-11T12:14:31.682Z,1007.85
2022-08-11T12:16:04.449Z,1007.86
2022-08-11T12:16:36.462Z,1007.89
2022-08-11T12:17:32.121Z,1007.84
2022-08-11T12:18:31.697Z,1007.79
2022-08-11T12:19:35.592Z,1007.71
2022-08-11T12:20:34.255Z,1007.81
2022-08-11T12:21:31.614Z,1007.85
2022-08-11T12:22:36.634Z,1007.75
2022-08-11T12:23:31.595Z,1007.86
2022-08-11T12:24:31.583Z,1007.78
2022-08-11T12:25:31.573Z,1007.76
2022-08-11T12:26:31.564Z,1007.72
2022-08-11T12:27:31.559Z,1007.79
2022-08-11T12:28:31.552Z,1007.75
2022-08-11T12:29:31.538Z,1007.79
2022-08-11T12:30:31.613Z,1007.77
2022-08-11T12:31:31.515Z,1007.80
2022-08-11T12:32:31.516Z,1007.83
2022-08-11T12:33:39.459Z,1007.70
2022-08-11T12:34:31.487Z,1007.71
2022-08-11T12:35:31.473Z,1007.63
2022-08-11T12:36:31.478Z,1007.64
2022-08-11T12:37:31.518Z,1007.61
2022-08-11T12:38:31.441Z,1007.66
2022-08-11T12:40:16.095Z,1007.55
2022-08-11T12:40:42.692Z,1007.50
2022-08-11T12:41:32.532Z,1007.37
2022-08-11T12:42:31.539Z,1007.18
2022-08-11T12:43:38.354Z,1007.30
2022-08-11T12:44:37.410Z,1007.27
2022-08-11T12:45:31.376Z,1007.35
2022-08-11T12:46:31.371Z,1007.20
2022-08-11T12:47:31.360Z,1007.23
2022-08-11T12:48:57.401Z,1007.27
2022-08-11T12:49:32.338Z,1007.26
2022-08-11T12:50:31.322Z,1007.27
2022-08-11T12:51:31.312Z,1007.22
2022-08-11T12:52:32.304Z,1007.27
2022-08-11T12:53:31.302Z,1007.24
2022-08-11T12:54:31.284Z,1007.08
2022-08-11T12:55:36.297Z,1007.16
2022-08-11T12:56:31.263Z,1007.15
2022-08-11T12:57:37.185Z,1007.11
2022-08-11T12:58:32.247Z,1007.19
2022-08-11T12:59:31.231Z,1007.09
2022-08-11T13:00:31.427Z,1006.96
2022-08-11T13:01:31.335Z,1006.99
2022-08-11T13:02:31.200Z,1006.95
2022-08-11T13:03:31.200Z,1007.14
2022-08-11T13:04:31.178Z,1007.06
2022-08-11T13:05:31.175Z,1007.00
2022-08-11T13:06:36.177Z,1006.99
2022-08-11T13:07:50.611Z,1007.01
2022-08-11T13:08:32.168Z,1006.97
2022-08-11T13:09:31.125Z,1006.96
2022-08-11T13:10:31.120Z,1006.93
2022-08-11T13:11:56.743Z,1006.95
2022-08-11T13:12:32.092Z,1007.02
2022-08-11T13:13:55.698Z,1007.02
2022-08-11T13:14:32.070Z,1007.03
2022-08-11T13:15:31.062Z,1007.01
2022-08-11T13:16:31.053Z,1007.01
2022-08-11T13:17:44.145Z,1006.87
2022-08-11T13:18:32.042Z,1006.92
2022-08-11T13:19:36.041Z,1006.86
2022-08-11T13:20:31.032Z,1006.80
2022-08-11T13:21:31.035Z,1006.81
2022-08-11T13:22:32.635Z,1006.84
2022-08-11T13:23:30.986Z,1006.84
2022-08-11T13:24:30.966Z,1006.78
2022-08-11T13:25:30.956Z,1006.68
2022-08-11T13:26:48.042Z,1006.80
2022-08-11T13:27:31.940Z,1006.66
2022-08-11T13:28:30.939Z,1006.77
2022-08-11T13:29:30.914Z,1006.74
2022-08-11T13:30:32.625Z,1006.65
2022-08-11T13:31:30.894Z,1006.69
2022-08-11T13:32:35.902Z,1006.72
2022-08-11T13:33:30.911Z,1006.67
2022-08-11T13:34:30.887Z,1006.67
2022-08-11T13:35:30.853Z,1006.67
2022-08-11T13:36:30.837Z,1006.66
2022-08-11T13:38:17.486Z,1006.65
2022-08-11T13:38:32.230Z,1006.61
2022-08-11T13:39:30.966Z,1006.58
2022-08-11T13:40:45.861Z,1006.58
2022-08-11T13:41:31.784Z,1006.61
2022-08-11T13:42:30.774Z,1006.57
2022-08-11T13:43:30.787Z,1006.57
2022-08-11T13:44:30.751Z,1006.60
2022-08-11T13:45:35.780Z,1006.59
2022-08-11T13:46:30.755Z,1006.60
2022-08-11T13:47:30.746Z,1006.64
2022-08-11T13:48:30.708Z,1006.57
2022-08-11T13:49:30.714Z,1006.55
2022-08-11T13:50:30.690Z,1006.59
2022-08-11T13:51:34.760Z,1006.54
2022-08-11T13:52:30.670Z,1006.49
2022-08-11T13:53:30.659Z,1006.58
2022-08-11T13:54:30.663Z,1006.61
2022-08-11T13:55:45.121Z,1006.58
2022-08-11T13:56:31.626Z,1006.54
2022-08-11T13:58:08.423Z,1006.51
2022-08-11T13:58:40.454Z,1006.53
2022-08-11T13:59:31.401Z,1006.42
2022-08-11T14:00:30.605Z,1006.45
2022-08-11T14:02:21.286Z,1006.44
2022-08-11T14:02:31.717Z,1006.54
2022-08-11T14:04:30.204Z,1006.39
2022-08-11T14:04:32.221Z,1006.43
2022-08-11T14:05:30.529Z,1006.40
2022-08-11T14:06:30.518Z,1006.46
2022-08-11T14:07:30.507Z,1006.43
2022-08-11T14:08:37.854Z,1006.39
2022-08-11T14:09:31.496Z,1006.33
2022-08-11T14:10:30.477Z,1006.41
2022-08-11T14:12:23.700Z,1006.30
2022-08-11T14:12:31.480Z,1006.21
2022-08-11T14:13:41.209Z,1006.23
2022-08-11T14:14:31.444Z,1006.33
2022-08-11T14:15:30.421Z,1006.29
2022-08-11T14:16:30.411Z,1006.16
2022-08-11T14:17:47.038Z,1006.21
2022-08-11T14:18:31.391Z,1006.19
2022-08-11T14:19:30.387Z,1006.13
2022-08-11T14:20:38.224Z,1006.20
2022-08-11T14:21:31.356Z,1006.17
2022-08-11T14:22:30.348Z,1006.11
2022-08-11T14:23:30.335Z,1006.18
2022-08-11T14:24:35.361Z,1006.13
2022-08-11T14:25:59.352Z,1006.15
2022-08-11T14:26:31.337Z,1006.15
2022-08-11T14:27:46.059Z,1006.10
2022-08-11T14:28:43.805Z,1006.09
2022-08-11T14:29:31.283Z,1006.15
2022-08-11T14:30:30.259Z,1006.09
2022-08-11T14:31:30.249Z,1006.13
2022-08-11T14:32:30.239Z,1006.14
2022-08-11T14:33:58.844Z,1006.18
2022-08-11T14:34:31.265Z,1006.07
2022-08-11T14:35:30.205Z,1006.11
2022-08-11T14:36:30.194Z,1006.10
2022-08-11T14:37:35.205Z,1006.04
2022-08-11T14:38:30.197Z,1006.08
2022-08-11T14:39:30.240Z,1006.09
2022-08-11T14:40:31.824Z,1006.14
2022-08-11T14:41:30.141Z,1006.05
2022-08-11T14:42:30.134Z,1006.00
2022-08-11T14:44:02.770Z,1006.03
2022-08-11T14:44:31.120Z,1005.94
2022-08-11T14:45:58.425Z,1006.01
2022-08-11T14:47:30.076Z,1006.01
2022-08-11T14:48:30.156Z,1005.94
2022-08-11T14:49:30.064Z,1005.92
2022-08-11T14:50:35.071Z,1005.94
2022-08-11T14:51:30.061Z,1005.85
2022-08-11T14:52:30.048Z,1005.89
2022-08-11T14:53:30.011Z,1005.88
2022-08-11T14:54:30.013Z,1005.87
2022-08-11T14:55:29.990Z,1005.83
2022-08-11T14:56:29.980Z,1005.85
2022-08-11T14:57:54.259Z,1005.82
2022-08-11T14:58:30.959Z,1005.78
2022-08-11T14:59:29.957Z,1005.76
2022-08-11T15:00:29.972Z,1005.85
2022-08-11T15:01:30.053Z,1005.81
2022-08-11T15:02:29.919Z,1005.80
2022-08-11T15:03:34.930Z,1005.78
2022-08-11T15:04:29.919Z,1005.84
2022-08-11T15:05:30.919Z,1005.82
2022-08-11T15:06:29.873Z,1005.83
2022-08-11T15:07:30.080Z,1005.76
2022-08-11T15:08:29.853Z,1005.81
2022-08-11T15:09:29.852Z,1005.78
2022-08-11T15:10:29.886Z,1005.77
2022-08-11T15:11:29.820Z,1005.79
2022-08-11T15:12:32.687Z,1005.78
2022-08-11T15:13:29.797Z,1005.80
2022-08-11T15:14:29.790Z,1005.68
2022-08-11T15:15:29.787Z,1005.76
2022-08-11T15:16:34.795Z,1005.75
2022-08-11T15:17:30.862Z,1005.74
2022-08-11T15:18:30.771Z,1005.74
2022-08-11T15:19:29.733Z,1005.75
2022-08-11T15:20:30.747Z,1005.73
2022-08-11T15:21:29.711Z,1005.70
2022-08-11T15:22:29.705Z,1005.72
2022-08-11T15:23:29.688Z,1005.68
2022-08-11T15:24:31.158Z,1005.70
2022-08-11T15:25:29.677Z,1005.71
2022-08-11T15:26:29.658Z,1005.71
2022-08-11T15:27:29.795Z,1005.69
2022-08-11T15:28:29.639Z,1005.69
2022-08-11T15:29:34.646Z,1005.64
2022-08-11T15:30:32.833Z,1005.74
2022-08-11T15:31:29.627Z,1005.65
2022-08-11T15:32:29.594Z,1005.63
2022-08-11T15:33:29.585Z,1005.68
2022-08-11T15:34:29.585Z,1005.61
2022-08-11T15:35:38.956Z,1005.64
2022-08-11T15:36:30.555Z,1005.67
2022-08-11T15:37:29.721Z,1005.61
2022-08-11T15:38:29.530Z,1005.60
2022-08-11T15:39:29.559Z,1005.62
2022-08-11T15:40:31.978Z,1005.60
2022-08-11T15:41:29.497Z,1005.54
2022-08-11T15:42:34.545Z,1005.57
2022-08-11T15:43:29.562Z,1005.65
2022-08-11T15:45:00.615Z,1005.66
2022-08-11T15:45:30.461Z,1005.62
2022-08-11T15:46:29.459Z,1005.67
2022-08-11T15:47:29.503Z,1005.64
2022-08-11T15:48:29.430Z,1005.63
2022-08-11T15:50:12.040Z,1005.50
2022-08-11T15:50:30.410Z,1005.61
2022-08-11T15:51:29.393Z,1005.62
2022-08-11T15:52:29.378Z,1005.60
2022-08-11T15:53:29.366Z,1005.55
2022-08-11T15:54:29.357Z,1005.56
2022-08-11T15:55:34.380Z,1005.59
2022-08-11T15:56:29.368Z,1005.58
2022-08-11T15:57:29.383Z,1005.48
2022-08-11T15:58:30.317Z,1005.53
2022-08-11T15:59:42.397Z,1005.49
2022-08-11T16:00:30.294Z,1005.48
2022-08-11T16:01:29.351Z,1005.47
2022-08-11T16:02:29.300Z,1005.43
2022-08-11T16:03:54.375Z,1005.43
2022-08-11T16:04:30.252Z,1005.56
2022-08-11T16:05:45.930Z,1005.41
2022-08-11T16:06:30.239Z,1005.44
2022-08-11T16:07:29.243Z,1005.48